createdAt,value
2022-12-11T00:03:20.983Z,44.53
2022-12-11T00:07:43.156Z,47.83
2022-12-11T00:12:07.501Z,45.00
2022-12-11T00:16:29.246Z,44.40
2022-12-11T00:20:51.285Z,43.60
2022-12-11T00:25:13.339Z,46.33
2022-12-11T00:29:35.404Z,49.22
2022-12-11T00:33:57.494Z,44.40
2022-12-11T00:38:22.014Z,50.33
2022-12-11T00:42:44.004Z,46.33
2022-12-11T00:47:05.838Z,46.72
2022-12-11T00:51:27.835Z,44.08
2022-12-11T00:55:50.909Z,46.15
2022-12-11T01:00:13.932Z,48.08
2022-12-11T01:04:38.473Z,45.15
2022-12-11T01:09:20.674Z,51.20
2022-12-11T01:13:43.271Z,49.95
2022-12-11T01:18:05.316Z,44.20
2022-12-11T01:22:27.192Z,48.15
2022-12-11T01:26:49.275Z,44.40
2022-12-11T01:31:20.609Z,44.05
2022-12-11T01:35:42.691Z,47.40
2022-12-11T01:40:06.918Z,42.42
2022-12-11T01:44:31.492Z,43.92
2022-12-11T01:48:54.001Z,50.53
2022-12-11T01:53:26.696Z,46.00
2022-12-11T01:57:51.429Z,47.78
2022-12-11T02:02:21.143Z,48.95
2022-12-11T02:06:50.430Z,47.08
2022-12-11T02:11:23.998Z,45.95
2022-12-11T02:15:51.530Z,48.08
2022-12-11T02:20:24.002Z,44.53
2022-12-11T02:25:31.391Z,48.47
2022-12-11T02:30:13.844Z,52.30
2022-12-11T02:35:05.805Z,48.13
2022-12-11T02:39:28.711Z,52.83
2022-12-11T02:43:51.997Z,48.50
2022-12-11T02:48:15.069Z,46.63
2022-12-11T02:52:39.363Z,49.75
2022-12-11T02:57:08.480Z,50.55
2022-12-11T03:01:30.748Z,54.85
2022-12-11T03:05:52.531Z,51.95
2022-12-11T03:10:19.018Z,49.70
2022-12-11T03:14:42.151Z,49.25
2022-12-11T03:19:24.584Z,46.55
2022-12-11T03:24:32.932Z,47.90
2022-12-11T03:29:05.967Z,50.33
2022-12-11T03:33:34.406Z,49.30
2022-12-11T03:38:00.545Z,50.38
2022-12-11T03:42:24.450Z,47.53
2022-12-11T03:46:48.020Z,51.10
2022-12-11T03:51:09.906Z,48.75
2022-12-11T03:55:37.129Z,48.38
2022-12-11T03:59:59.441Z,48.90
2022-12-11T04:04:21.532Z,52.03
2022-12-11T04:08:43.154Z,51.75
2022-12-11T04:13:05.106Z,46.90
2022-12-11T04:17:45.995Z,51.13
2022-12-11T04:22:28.189Z,51.53
2022-12-11T04:26:50.264Z,54.10
2022-12-11T04:31:19.584Z,51.72
2022-12-11T04:35:41.255Z,63.50
2022-12-11T04:40:06.456Z,53.63
2022-12-11T04:44:28.111Z,51.60
2022-12-11T04:48:57.032Z,51.25
2022-12-11T04:53:19.686Z,54.78
2022-12-11T04:57:41.705Z,52.67
2022-12-11T05:02:04.614Z,51.78
2022-12-11T05:06:26.277Z,49.15
2022-12-11T05:11:00.519Z,45.05
2022-12-11T05:15:23.554Z,45.65
2022-12-11T05:19:49.860Z,48.95
2022-12-11T05:24:11.721Z,52.03
2022-12-11T05:28:37.294Z,58.22
2022-12-11T05:32:59.068Z,43.95
2022-12-11T05:37:21.320Z,45.10
2022-12-11T05:41:43.125Z,43.53
2022-12-11T05:46:18.001Z,39.67
2022-12-11T05:50:39.790Z,38.90
2022-12-11T05:55:02.428Z,39.78
2022-12-11T05:59:24.456Z,34.60
2022-12-11T06:03:46.369Z,34.30
2022-12-11T06:08:08.801Z,30.15
2022-12-11T06:12:31.246Z,36.60
2022-12-11T06:16:53.192Z,26.15
2022-12-11T06:21:25.449Z,27.27
2022-12-11T06:25:47.391Z,28.92
2022-12-11T06:30:10.250Z,30.33
2022-12-11T06:34:31.964Z,29.60
2022-12-11T06:38:55.796Z,26.67
2022-12-11T06:43:17.757Z,28.38
2022-12-11T06:47:39.827Z,27.58
2022-12-11T06:52:01.802Z,30.67
2022-12-11T06:56:24.707Z,31.08
2022-12-11T07:00:46.750Z,29.02
2022-12-11T07:05:09.465Z,28.38
2022-12-11T07:09:31.506Z,30.02
2022-12-11T07:13:53.482Z,33.30
2022-12-11T07:18:15.290Z,31.60
2022-12-11T07:22:44.653Z,30.38
2022-12-11T07:27:08.657Z,31.33
2022-12-11T07:31:31.314Z,30.20
2022-12-11T07:35:53.192Z,32.53
2022-12-11T07:40:15.412Z,30.48
2022-12-11T07:44:37.475Z,29.00
2022-12-11T07:49:00.974Z,31.75
2022-12-11T07:53:22.851Z,31.15
2022-12-11T07:57:44.797Z,28.85
2022-12-11T08:02:07.043Z,28.85
2022-12-11T08:06:32.962Z,27.83
2022-12-11T08:10:55.054Z,31.30
2022-12-11T08:15:17.295Z,33.13
2022-12-11T08:19:38.920Z,27.77
2022-12-11T08:24:00.854Z,31.52
2022-12-11T08:28:22.789Z,28.05
2022-12-11T08:32:44.629Z,28.60
2022-12-11T08:37:06.640Z,29.15
2022-12-11T08:41:30.762Z,26.85
2022-12-11T08:45:52.838Z,27.60
2022-12-11T08:50:14.874Z,30.08
2022-12-11T08:54:40.087Z,29.65
2022-12-11T08:59:02.143Z,29.25
2022-12-11T09:03:24.372Z,27.20
2022-12-11T09:07:46.551Z,29.98
2022-12-11T09:12:08.733Z,32.53
2022-12-11T09:16:30.819Z,27.75
2022-12-11T09:21:09.288Z,26.42
2022-12-11T09:25:30.983Z,26.58
2022-12-11T09:29:52.886Z,24.27
2022-12-11T09:34:14.892Z,25.15
2022-12-11T09:38:36.987Z,25.05
2022-12-11T09:43:09.467Z,25.73
2022-12-11T09:47:40.633Z,26.42
2022-12-11T09:52:23.162Z,27.23
2022-12-11T09:56:58.454Z,25.52
2022-12-11T10:02:25.270Z,27.25
2022-12-11T10:07:35.629Z,26.27
2022-12-11T10:12:19.893Z,24.25
2022-12-11T10:16:56.880Z,24.83
2022-12-11T10:21:19.346Z,27.25
2022-12-11T10:25:51.672Z,20.70
2022-12-11T10:30:18.547Z,20.80
2022-12-11T10:34:45.353Z,20.25
2022-12-11T10:39:20.294Z,23.85
2022-12-11T10:43:49.136Z,22.60
2022-12-11T10:48:12.614Z,21.40
2022-12-11T10:52:44.779Z,21.30
2022-12-11T10:57:09.855Z,22.77
2022-12-11T11:01:33.071Z,26.52
2022-12-11T11:06:17.323Z,27.15
2022-12-11T11:10:49.320Z,25.45
2022-12-11T11:15:29.123Z,26.60
2022-12-11T11:19:51.245Z,22.67
2022-12-11T11:24:44.832Z,22.27
2022-12-11T11:29:07.268Z,23.55
2022-12-11T11:33:30.210Z,26.73
2022-12-11T11:38:20.067Z,25.80
2022-12-11T11:43:03.775Z,25.17
2022-12-11T11:47:39.131Z,23.52
2022-12-11T11:52:19.886Z,24.40
2022-12-11T11:56:53.855Z,25.73
2022-12-11T12:01:18.793Z,26.48
2022-12-11T12:05:57.728Z,26.90
2022-12-11T12:10:39.137Z,26.10
2022-12-11T12:15:39.321Z,23.27
2022-12-11T12:20:19.958Z,23.73
2022-12-11T12:24:53.984Z,27.70
2022-12-11T12:30:04.054Z,25.65
2022-12-11T12:35:03.281Z,22.33
2022-12-11T12:39:56.834Z,27.25
2022-12-11T12:44:22.813Z,27.70
2022-12-11T12:48:46.112Z,30.77
2022-12-11T12:53:14.405Z,32.47
2022-12-11T12:57:38.635Z,28.40
2022-12-11T13:02:04.245Z,29.83
2022-12-11T13:06:42.795Z,30.77
2022-12-11T13:11:10.298Z,26.77
2022-12-11T13:15:40.861Z,29.83
2022-12-11T13:20:34.261Z,32.13
2022-12-11T13:25:01.738Z,31.27
2022-12-11T13:29:39.452Z,29.00
2022-12-11T13:34:16.199Z,28.58
2022-12-11T13:38:45.974Z,32.28
2022-12-11T13:43:22.466Z,31.90
2022-12-11T13:47:45.065Z,34.67
2022-12-11T13:52:07.352Z,32.08
2022-12-11T13:56:29.401Z,32.50
2022-12-11T14:01:13.900Z,33.22
2022-12-11T14:05:36.602Z,32.05
2022-12-11T14:10:10.032Z,32.72
2022-12-11T14:14:43.686Z,29.83
2022-12-11T14:19:07.651Z,29.75
2022-12-11T14:23:35.830Z,32.72
2022-12-11T14:27:57.962Z,31.23
2022-12-11T14:32:36.936Z,30.77
2022-12-11T14:37:00.976Z,38.20
2022-12-11T14:41:39.215Z,34.20
2022-12-11T14:46:55.950Z,35.67
2022-12-11T14:51:19.566Z,33.05
2022-12-11T14:55:42.094Z,32.22
2022-12-11T15:00:41.512Z,31.50
2022-12-11T15:05:18.615Z,35.10
2022-12-11T15:09:43.662Z,33.20
2022-12-11T15:14:05.973Z,35.00
2022-12-11T15:18:36.131Z,32.47
2022-12-11T15:23:01.809Z,33.47
2022-12-11T15:27:40.224Z,33.28
2022-12-11T15:32:19.052Z,37.53
2022-12-11T15:36:41.038Z,33.30
2022-12-11T15:41:04.576Z,35.13
2022-12-11T15:45:29.110Z,34.08
2022-12-11T15:49:55.131Z,31.48
2022-12-11T15:54:17.990Z,34.38
2022-12-11T15:58:39.982Z,31.73
2022-12-11T16:03:01.991Z,33.20
2022-12-11T16:07:26.228Z,33.15
2022-12-11T16:11:47.879Z,34.80
2022-12-11T16:16:11.278Z,34.65
2022-12-11T16:20:34.658Z,34.38
2022-12-11T16:24:56.927Z,36.08
2022-12-11T16:29:18.771Z,36.00
2022-12-11T16:33:40.757Z,34.83
2022-12-11T16:38:08.735Z,35.70
2022-12-11T16:42:31.201Z,36.83
2022-12-11T16:46:54.403Z,37.08
2022-12-11T16:51:17.105Z,39.75
2022-12-11T16:55:40.531Z,38.25
2022-12-11T17:00:03.559Z,34.97
2022-12-11T17:04:25.435Z,33.35
2022-12-11T17:08:47.717Z,33.72
2022-12-11T17:13:09.564Z,36.40
2022-12-11T17:17:32.292Z,34.88
2022-12-11T17:21:55.626Z,35.92
2022-12-11T17:26:18.425Z,39.15
2022-12-11T17:30:42.875Z,33.85
2022-12-11T17:35:04.994Z,35.35
2022-12-11T17:39:26.684Z,35.30
2022-12-11T17:43:51.354Z,36.53
2022-12-11T17:48:14.034Z,38.70
2022-12-11T17:52:42.513Z,39.78
2022-12-11T17:57:06.935Z,39.60
2022-12-11T18:01:28.955Z,37.60
2022-12-11T18:05:54.873Z,41.58
2022-12-11T18:10:16.714Z,50.45
2022-12-11T18:14:41.447Z,53.35
2022-12-11T18:19:05.462Z,42.83
2022-12-11T18:23:28.115Z,83.63
2022-12-11T18:27:50.828Z,43.15
2022-12-11T18:32:12.470Z,53.95
2022-12-11T18:36:34.753Z,44.35
2022-12-11T18:40:56.521Z,41.13
2022-12-11T18:45:18.529Z,41.97
2022-12-11T18:49:40.646Z,45.50
2022-12-11T18:54:02.740Z,39.20
2022-12-11T18:58:24.602Z,49.55
2022-12-11T19:02:49.638Z,45.22
2022-12-11T19:07:11.644Z,42.33
2022-12-11T19:11:35.744Z,48.08
2022-12-11T19:15:57.629Z,49.63
2022-12-11T19:20:47.596Z,48.38
2022-12-11T19:25:02.543Z,48.15
2022-12-11T19:29:29.798Z,52.88
2022-12-11T19:33:51.656Z,46.45
2022-12-11T19:38:14.374Z,47.45
2022-12-11T19:42:36.684Z,49.97
2022-12-11T19:46:58.713Z,48.38
2022-12-11T19:51:25.418Z,50.47
2022-12-11T19:55:54.024Z,53.53
2022-12-11T20:00:16.641Z,46.53
2022-12-11T20:04:39.089Z,50.28
2022-12-11T20:09:03.550Z,49.58
2022-12-11T20:13:25.596Z,47.97
2022-12-11T20:17:47.643Z,44.30
2022-12-11T20:22:10.312Z,46.60
2022-12-11T20:26:36.033Z,46.72
2022-12-11T20:31:08.827Z,47.13
2022-12-11T20:35:30.994Z,48.40
2022-12-11T20:39:53.791Z,49.75
2022-12-11T20:44:15.830Z,50.17
2022-12-11T20:48:38.831Z,47.38
2022-12-11T20:53:00.645Z,51.97
2022-12-11T20:57:22.720Z,45.60
2022-12-11T21:01:45.253Z,50.42
2022-12-11T21:06:07.140Z,49.42
2022-12-11T21:10:29.136Z,50.97
2022-12-11T21:14:51.091Z,50.88
2022-12-11T21:19:17.047Z,48.28
2022-12-11T21:23:39.060Z,49.20
2022-12-11T21:28:01.903Z,43.10
2022-12-11T21:32:24.173Z,46.72
2022-12-11T21:36:47.481Z,50.35
2022-12-11T21:41:15.730Z,52.63
2022-12-11T21:46:00.362Z,56.92
2022-12-11T21:50:19.910Z,50.38
2022-12-11T21:54:42.669Z,51.90
2022-12-11T21:59:04.971Z,58.33
2022-12-11T22:03:27.194Z,55.33
2022-12-11T22:07:49.176Z,56.63
2022-12-11T22:12:23.033Z,55.42
2022-12-11T22:16:45.882Z,56.60
2022-12-11T22:21:08.079Z,56.65
2022-12-11T22:25:30.251Z,57.00
2022-12-11T22:29:52.353Z,60.35
2022-12-11T22:34:14.035Z,58.90
2022-12-11T22:38:36.420Z,58.72
2022-12-11T22:42:58.783Z,54.55
2022-12-11T22:47:20.514Z,58.55
2022-12-11T22:51:42.574Z,61.83
2022-12-11T22:56:07.170Z,60.00
2022-12-11T23:00:29.107Z,55.20
2022-12-11T23:04:50.861Z,57.00
2022-12-11T23:09:12.851Z,55.35
2022-12-11T23:13:34.836Z,56.85
2022-12-11T23:17:56.856Z,57.42
2022-12-11T23:22:20.433Z,57.33
2022-12-11T23:26:42.647Z,58.40
2022-12-11T23:31:05.402Z,55.83
2022-12-11T23:35:27.602Z,59.13
2022-12-11T23:39:49.551Z,52.83
2022-12-11T23:44:11.761Z,56.95
2022-12-11T23:48:33.794Z,53.97
2022-12-11T23:52:55.619Z,56.35
2022-12-11T23:57:17.575Z,56.55
